Time;durP1;ratioP1;P1;durP2;ratioP2;P2;SDS_P1;SDS_P2;PMS_P1;PMS_P2;Temp;Humidity;BMP_temperature;BMP_pressure;BME280_temperature;BME280_humidity;BME280_pressure;Samples;Min_cycle;Max_cycle;Signal;HPM_P1;HPM_P2
2021/05/06 00:31:42;;;;;;;3.20;2.90;;;;;;;16.13;51.50;93904.01;834117;71;32781;-78
2021/05/06 01:16:29;;;;;;;2.30;2.10;;;;;;;15.93;51.90;93948.06;834052;71;30299;-79
2021/05/06 01:31:21;;;;;;;2.55;2.35;;;;;;;15.82;52.10;93949.09;835553;71;32692;-79
2021/05/06 02:01:08;;;;;;;3.12;2.90;;;;;;;15.55;53.01;93966.38;834070;71;29681;-76
2021/05/06 02:16:16;;;;;;;5.67;3.67;;;;;;;15.38;53.77;93991.94;829354;71;30204;-79
2021/05/06 02:31:09;;;;;;;2.87;2.67;;;;;;;15.25;54.62;94002.83;828565;71;29878;-77
2021/05/06 02:46:09;;;;;;;2.92;2.62;;;;;;;14.99;55.74;93999.39;828259;71;30337;-77
2021/05/06 03:46:37;;;;;;;6.55;3.95;;;;;;;15.31;57.79;94067.59;834336;71;32637;-77
2021/05/06 04:35:28;;;;;;;16.52;14.90;;;;;;;22.16;46.23;94111.33;834466;71;32890;-78
2021/05/06 04:50:19;;;;;;;5.90;5.30;;;;;;;24.06;41.46;94126.09;835217;71;32583;-79
2021/05/06 05:31:08;;;;;;;3.87;3.33;;;;;;;24.81;37.36;94170.31;794217;74;30287;-75
2021/05/06 06:01:09;;;;;;;3.87;3.00;;;;;;;25.32;35.89;94199.16;828370;71;29767;-74
2021/05/06 06:16:12;;;;;;;3.50;2.87;;;;;;;25.63;35.24;94211.50;828327;71;30363;-76
2021/05/06 06:31:26;;;;;;;3.50;3.20;;;;;;;25.55;34.28;94237.66;819172;71;32692;-75
2021/05/06 06:46:09;;;;;;;3.10;2.90;;;;;;;25.22;34.02;94248.30;821325;71;30363;-76
2021/05/06 07:01:14;;;;;;;3.20;2.90;;;;;;;25.24;34.23;94251.37;827490;71;32713;-74
2021/05/06 07:16:15;;;;;;;3.03;2.73;;;;;;;25.44;33.97;94256.48;827549;71;33219;-78
2021/05/06 07:31:11;;;;;;;3.10;2.87;;;;;;;25.74;33.64;94264.06;828236;71;30286;-77
2021/05/06 07:46:14;;;;;;;3.40;3.10;;;;;;;26.04;33.49;94255.32;834798;71;32715;-77
2021/05/06 08:01:12;;;;;;;3.70;3.40;;;;;;;26.43;33.54;94250.27;828630;71;32996;-76
2021/05/06 08:16:09;;;;;;;3.57;3.17;;;;;;;25.90;33.72;94254.22;829179;71;30330;-76
2021/05/06 08:31:08;;;;;;;4.50;3.47;;;;;;;25.88;33.72;94246.34;829121;71;30145;-76
2021/05/06 08:46:08;;;;;;;4.10;3.70;;;;;;;26.46;33.58;94255.63;828316;71;29726;-77
2021/05/06 09:01:40;;;;;;;4.30;3.27;;;;;;;26.49;32.54;94269.63;828128;71;30353;-76
2021/05/06 09:16:12;;;;;;;2.93;2.80;;;;;;;25.93;32.65;94278.21;828172;71;31513;-76
2021/05/06 09:31:15;;;;;;;3.20;3.00;;;;;;;26.54;31.34;94265.73;833754;71;32758;-76
2021/05/06 09:46:56;;;;;;;3.20;3.00;;;;;;;;;;833760;71;32705;-80
2021/05/06 10:01:15;;;;;;;3.80;3.50;;;;;;;26.93;29.60;94270.85;827428;71;32701;-74
2021/05/06 10:16:16;;;;;;;3.40;3.10;;;;;;;27.04;29.29;94266.70;833931;71;33182;-75
2021/05/06 10:31:10;;;;;;;3.27;2.97;;;;;;;27.15;29.99;94275.47;828259;71;29729;-74
2021/05/06 10:46:14;;;;;;;4.70;2.90;;;;;;;27.50;29.81;123554.15;833949;71;33229;-75
2021/05/06 11:01:09;;;;;;;2.87;2.67;;;;;;;;;;834172;71;29736;-77
2021/05/06 11:16:18;;;;;;;2.90;2.70;;;;;;;26.16;30.48;94273.11;834149;71;32660;-77
2021/05/06 11:31:10;;;;;;;2.77;2.57;;;;;;;26.61;30.20;94277.84;828396;71;29667;-75
2021/05/06 11:46:19;;;;;;;4.50;2.60;;;;;;;26.94;29.81;94267.57;827306;71;32779;-77
2021/05/06 12:01:17;;;;;;;3.10;2.90;;;;;;;26.89;29.37;94272.81;827730;71;33269;-78
2021/05/06 12:16:20;;;;;;;2.57;2.37;;;;;;;26.80;29.72;94259.62;834103;71;32717;-75
2021/05/06 12:31:07;;;;;;;3.13;2.93;;;;;;;;;;828352;71;29767;-77
2021/05/06 12:46:11;;;;;;;2.43;2.23;;;;;;;26.42;29.93;94232.58;835441;71;30232;-79
2021/05/06 13:01:22;;;;;;;3.40;3.07;;;;;;;26.00;29.77;94243.81;827651;71;32703;-78
2021/05/06 13:16:11;;;;;;;2.17;2.07;;;;;;;25.62;30.26;94235.52;828753;71;30580;-76
2021/05/06 13:31:21;;;;;;;2.60;2.40;;;;;;;25.26;30.33;94221.61;834158;71;32771;-78
2021/05/06 13:46:12;;;;;;;2.40;2.30;;;;;;;25.35;29.67;94216.61;828286;71;31419;-76
2021/05/06 14:01:11;;;;;;;2.00;1.90;;;;;;;25.10;28.82;94207.83;834321;71;29740;-77
2021/05/06 14:16:09;;;;;;;2.10;2.00;;;;;;;24.78;27.80;94194.67;828253;71;30829;-74
2021/05/06 14:31:09;;;;;;;2.37;2.27;;;;;;;24.49;27.90;94192.55;828574;71;29710;-76
2021/05/06 14:46:29;;;;;;;2.23;2.13;;;;;;;24.38;27.75;94185.09;826372;71;32738;-77
2021/05/06 15:01:51;;;;;;;2.30;2.10;;;;;;;24.50;34.20;94177.27;828443;71;32846;-76
2021/05/06 15:16:10;;;;;;;2.70;2.50;;;;;;;24.76;31.03;94174.74;834052;71;30756;-75
2021/05/06 15:31:14;;;;;;;3.03;2.50;;;;;;;24.77;27.72;94157.47;834033;71;32656;-76
2021/05/06 15:46:11;;;;;;;2.37;2.20;;;;;;;24.70;29.96;94157.50;834255;71;31223;-75
2021/05/06 16:01:22;;;;;;;2.60;2.40;;;;;;;24.51;27.68;94156.77;834277;71;32773;-79
2021/05/06 16:16:18;;;;;;;3.20;2.97;;;;;;;23.62;27.83;94156.63;828808;71;32834;-78
2021/05/06 16:31:14;;;;;;;2.50;2.37;;;;;;;22.83;28.40;94156.29;834469;71;32685;-77
2021/05/06 16:46:08;;;;;;;2.10;2.00;;;;;;;22.48;28.88;94153.02;834619;71;29727;-77
2021/05/06 17:01:13;;;;;;;2.47;2.30;;;;;;;21.98;29.35;94146.72;834865;71;30533;-78
2021/05/06 17:02:17;;;;;;;2.90;2.57;;;;;;;21.92;29.43;94146.09;811515;72;26412;-76
2021/05/06 17:03:22;;;;;;;2.80;2.60;;;;;;;21.92;29.58;94149.52;804676;73;26428;-76
2021/05/06 17:04:25;;;;;;;2.70;2.50;;;;;;;21.96;29.63;94147.65;807687;73;26533;-77
2021/05/06 17:05:29;;;;;;;3.40;3.03;;;;;;;22.05;29.55;94143.90;807460;73;26506;-77
2021/05/06 17:06:36;;;;;;;3.73;3.43;;;;;;;22.14;29.46;94145.13;805108;73;26575;-78
2021/05/06 17:07:43;;;;;;;3.90;2.90;;;;;;;22.23;29.41;94140.80;807537;73;27124;-76
2021/05/06 17:08:47;;;;;;;2.97;2.77;;;;;;;22.31;29.37;94145.09;807417;73;26348;-81
2021/05/06 17:09:51;;;;;;;2.90;2.70;;;;;;;22.39;29.43;94140.56;807454;73;26538;-76
2021/05/06 17:10:54;;;;;;;2.50;2.40;;;;;;;22.43;29.50;94144.61;807270;73;26627;-79
2021/05/06 17:11:58;;;;;;;3.27;2.60;;;;;;;22.47;29.81;94144.82;807383;73;26506;-77
2021/05/06 17:13:07;;;;;;;3.03;2.33;;;;;;;22.50;29.96;94146.73;807313;73;26505;-79
2021/05/06 17:14:09;;;;;;;2.20;2.10;;;;;;;22.54;30.07;94145.42;806688;73;26557;-80
2021/05/06 17:15:13;;;;;;;2.67;2.47;;;;;;;22.56;30.11;94144.48;807212;73;27025;-78
2021/05/06 17:16:17;;;;;;;2.40;2.30;;;;;;;22.57;30.29;94142.78;807832;73;26441;-81
2021/05/06 17:17:21;;;;;;;2.97;2.20;;;;;;;22.62;33.28;94140.31;807386;73;26470;-79
2021/05/06 17:18:26;;;;;;;4.13;2.20;;;;;;;22.79;37.79;94149.03;807460;73;26431;-81
2021/05/06 17:19:30;;;;;;;4.87;2.50;;;;;;;22.99;38.82;94142.03;807247;73;26498;-78
2021/05/06 17:20:34;;;;;;;2.67;2.47;;;;;;;23.16;38.66;94146.73;807416;73;26426;-77
2021/05/06 17:21:38;;;;;;;2.70;2.50;;;;;;;23.27;35.40;94150.03;807276;73;26965;-77
2021/05/06 17:22:44;;;;;;;2.90;2.70;;;;;;;23.28;33.75;94147.55;807133;73;26596;-76
2021/05/06 17:23:48;;;;;;;2.90;2.70;;;;;;;23.27;33.20;94144.67;807246;73;26587;-76
2021/05/06 17:24:53;;;;;;;2.90;2.70;;;;;;;23.25;32.94;94151.73;807274;73;26323;-77
2021/05/06 17:25:56;;;;;;;7.10;2.60;;;;;;;23.22;32.55;94143.71;807429;73;26858;-78
2021/05/06 17:27:00;;;;;;;3.37;2.60;;;;;;;23.17;32.89;94146.92;807426;73;26530;-77
2021/05/06 17:28:04;;;;;;;3.17;2.87;;;;;;;23.14;33.14;94147.69;807349;73;26519;-77
2021/05/06 17:29:11;;;;;;;4.03;3.00;;;;;;;23.15;35.47;94147.11;790551;74;26544;-77
2021/05/06 17:30:16;;;;;;;3.40;2.80;;;;;;;23.18;35.07;94146.37;791300;73;26404;-77
2021/05/06 17:31:20;;;;;;;3.37;3.07;;;;;;;23.17;34.69;94142.91;807431;73;26566;-76
2021/05/06 17:32:28;;;;;;;2.90;2.70;;;;;;;23.18;34.20;94142.35;807448;73;26426;-76
2021/05/06 17:33:32;;;;;;;3.70;3.03;;;;;;;23.15;33.34;94141.75;807389;73;26285;-79
2021/05/06 17:34:37;;;;;;;3.87;2.80;;;;;;;23.10;33.10;94138.88;807288;73;26923;-77
2021/05/06 17:35:42;;;;;;;3.30;3.00;;;;;;;23.05;33.12;94133.87;807619;73;26820;-80
2021/05/06 17:36:46;;;;;;;2.97;2.77;;;;;;;23.00;33.00;94135.55;807472;73;26648;-78
2021/05/06 17:37:50;;;;;;;2.90;2.80;;;;;;;22.91;32.84;94139.92;790711;74;26592;-77
2021/05/06 17:38:55;;;;;;;3.10;2.90;;;;;;;22.86;32.97;94134.16;791059;73;26475;-77
2021/05/06 17:39:59;;;;;;;3.27;3.07;;;;;;;22.82;32.67;94140.81;790642;74;26540;-77
2021/05/06 17:41:02;;;;;;;4.00;3.70;;;;;;;22.75;32.78;94133.53;790934;73;26601;-75
2021/05/06 17:42:06;;;;;;;7.87;6.50;;;;;;;22.71;32.90;94134.63;807138;73;26608;-76
2021/05/06 17:43:11;;;;;;;12.57;9.80;;;;;;;22.66;32.99;94133.08;807279;73;27397;-76
2021/05/06 17:44:16;;;;;;;11.13;10.03;;;;;;;22.61;32.99;94140.13;807283;73;26271;-79
2021/05/06 17:45:20;;;;;;;9.83;7.50;;;;;;;22.56;33.08;94134.55;807320;73;26517;-79
2021/05/06 17:46:25;;;;;;;4.67;4.10;;;;;;;22.52;32.95;94142.36;807309;73;26408;-77
2021/05/06 17:47:30;;;;;;;3.60;3.30;;;;;;;22.46;32.91;94138.50;807312;73;26355;-75
2021/05/06 17:48:35;;;;;;;3.43;3.13;;;;;;;22.41;33.06;94134.28;808060;73;26966;-78
2021/05/06 17:49:39;;;;;;;3.30;3.00;;;;;;;22.36;33.24;94136.73;807498;73;26348;-76
2021/05/06 17:50:42;;;;;;;3.37;3.17;;;;;;;22.30;33.30;94136.09;807495;73;26533;-76
2021/05/06 17:51:48;;;;;;;3.30;3.10;;;;;;;22.27;33.45;94139.52;807810;73;26815;-79
2021/05/06 17:52:52;;;;;;;3.27;2.97;;;;;;;22.22;33.16;94139.25;807871;73;26400;-76
2021/05/06 17:53:55;;;;;;;4.30;3.07;;;;;;;22.17;33.13;94132.92;807550;73;26494;-78
2021/05/06 17:54:59;;;;;;;3.70;3.27;;;;;;;22.13;33.43;94138.23;807607;73;26451;-74
2021/05/06 17:56:04;;;;;;;3.60;3.30;;;;;;;22.09;33.57;94140.11;807591;73;26489;-76
2021/05/06 17:57:07;;;;;;;3.77;3.37;;;;;;;22.05;33.80;94135.31;807546;73;26423;-77
2021/05/06 17:58:12;;;;;;;3.87;3.57;;;;;;;22.01;33.73;94139.28;807569;73;26499;-79
2021/05/06 17:59:16;;;;;;;4.07;3.77;;;;;;;21.98;33.91;94134.69;807770;73;26488;-78
2021/05/06 18:00:21;;;;;;;4.07;3.67;;;;;;;21.96;34.09;94134.87;807904;73;26496;-79
2021/05/06 18:01:24;;;;;;;7.77;3.37;;;;;;;21.94;34.04;94134.47;808077;73;26417;-80
2021/05/06 18:02:29;;;;;;;3.90;3.50;;;;;;;21.90;33.89;94134.43;810477;73;27004;-80
2021/05/06 18:03:34;;;;;;;4.07;3.67;;;;;;;21.88;34.16;94131.36;810794;73;26549;-79
2021/05/06 18:04:37;;;;;;;4.70;3.67;;;;;;;21.85;34.32;94129.98;810680;73;26339;-79
2021/05/06 18:05:41;;;;;;;3.27;2.97;;;;;;;21.82;34.19;94134.17;810627;73;26311;-78
2021/05/06 18:06:47;;;;;;;4.03;3.30;;;;;;;21.78;34.28;94131.45;810429;71;26424;-77
2021/05/06 18:07:50;;;;;;;5.93;3.97;;;;;;;21.74;34.19;94127.98;814371;71;26461;-80
2021/05/06 18:08:55;;;;;;;4.67;3.87;;;;;;;21.72;34.34;94130.83;810774;71;26597;-80
2021/05/06 18:10:08;;;;;;;4.53;4.07;;;;;;;21.69;34.42;94133.66;810827;71;26365;-79
2021/05/06 18:11:30;;;;;;;4.23;3.87;;;;;;;21.65;34.53;94133.42;809391;73;26505;-79
2021/05/06 18:12:16;;;;;;;4.50;4.10;;;;;;;21.62;34.56;94128.26;805578;73;26508;-78
2021/05/06 18:13:20;;;;;;;3.63;3.20;;;;;;;21.58;34.47;94136.80;810227;73;27251;-78
2021/05/06 18:14:24;;;;;;;3.67;3.37;;;;;;;21.55;34.45;94130.84;793068;75;26936;-77
2021/05/06 18:15:28;;;;;;;5.03;3.30;;;;;;;21.53;34.55;94134.45;778991;76;26390;-78
2021/05/06 18:16:32;;;;;;;4.90;3.20;;;;;;;21.49;34.85;94138.98;779130;76;26659;-82
2021/05/06 18:17:37;;;;;;;3.90;3.23;;;;;;;21.45;35.03;94134.97;778913;76;26681;-77
2021/05/06 18:18:41;;;;;;;3.70;3.40;;;;;;;21.43;35.02;94140.45;779645;76;26508;-81
2021/05/06 18:19:45;;;;;;;7.67;3.07;;;;;;;21.40;35.09;94145.92;779100;76;26594;-78
2021/05/06 18:20:48;;;;;;;4.17;3.67;;;;;;;21.37;35.11;94139.42;778618;75;26628;-82
2021/05/06 18:21:52;;;;;;;5.03;3.90;;;;;;;21.34;35.23;94143.38;771302;76;26568;-80
2021/05/06 18:22:56;;;;;;;3.77;3.43;;;;;;;21.31;35.16;94140.88;793589;75;26256;-80
2021/05/06 18:24:48;;;;;;;4.30;3.90;;;;;;;21.29;35.36;94141.81;796226;73;26644;-82
2021/05/06 18:25:40;;;;;;;6.50;4.40;;;;;;;21.26;35.60;94144.44;785116;73;26648;-81
2021/05/06 18:26:44;;;;;;;4.97;4.00;;;;;;;21.20;35.95;94151.99;793973;73;26429;-82
2021/05/06 18:27:55;;;;;;;5.10;4.63;;;;;;;21.17;36.09;94147.39;796695;73;26375;-81
2021/05/06 18:28:53;;;;;;;8.33;4.83;;;;;;;21.15;36.22;94158.42;810336;73;26465;-82
2021/05/06 18:29:57;;;;;;;4.70;4.20;;;;;;;21.12;36.29;94151.13;812354;73;26451;-82
2021/05/06 18:31:02;;;;;;;5.28;4.60;;;;;;;21.09;36.44;94153.20;796966;73;26354;-79
2021/05/06 18:32:06;;;;;;;5.80;4.30;;;;;;;21.03;36.45;94159.23;794219;74;26609;-81
2021/05/06 18:33:11;;;;;;;5.85;4.80;;;;;;;20.93;36.27;94160.63;793961;74;26306;-79
2021/05/06 18:34:14;;;;;;;4.85;4.10;;;;;;;20.81;36.19;94162.37;793844;74;26303;-80
2021/05/06 18:35:19;;;;;;;4.40;3.90;;;;;;;20.76;36.38;94164.58;794168;74;26235;-80
2021/05/06 18:36:22;;;;;;;5.45;4.40;;;;;;;20.69;36.30;94165.25;793955;74;26940;-80
2021/05/06 18:37:26;;;;;;;5.87;4.45;;;;;;;20.59;36.02;94159.97;793771;74;26329;-80
2021/05/06 18:38:33;;;;;;;5.40;3.98;;;;;;;20.57;35.98;94168.86;794053;74;26329;-81
2021/05/06 18:39:37;;;;;;;4.70;4.23;;;;;;;20.54;36.10;94162.94;794136;74;26311;-78
2021/05/06 18:40:41;;;;;;;5.45;3.70;;;;;;;20.53;36.13;94172.05;794072;74;26741;-80
2021/05/06 18:41:45;;;;;;;4.47;4.12;;;;;;;20.52;36.18;94171.86;792278;74;26321;-78
2021/05/06 18:42:49;;;;;;;4.97;3.62;;;;;;;20.53;36.18;94173.95;812857;71;26321;-81
2021/05/06 18:43:57;;;;;;;4.78;3.80;;;;;;;20.53;36.22;94175.28;829363;71;26268;-79
2021/05/06 18:45:00;;;;;;;5.25;4.78;;;;;;;20.52;36.30;94175.85;828919;71;26322;-79
2021/05/06 18:46:05;;;;;;;7.22;5.40;;;;;;;20.52;36.46;94174.52;828877;71;26292;-81
2021/05/06 18:47:09;;;;;;;6.85;6.10;;;;;;;20.52;36.55;94180.39;828919;71;26325;-81
2021/05/06 18:48:13;;;;;;;6.08;5.47;;;;;;;20.52;36.55;94183.85;829007;71;26256;-82
2021/05/06 18:49:18;;;;;;;5.65;5.15;;;;;;;20.50;36.57;94183.44;828991;71;26718;-81
2021/05/06 18:50:23;;;;;;;5.55;4.50;;;;;;;20.50;36.55;94185.31;824364;71;26248;-79
2021/05/06 18:51:29;;;;;;;5.15;4.72;;;;;;;20.50;36.52;94191.44;828379;71;26484;-81
2021/05/06 18:52:33;;;;;;;5.83;4.78;;;;;;;20.47;36.65;94198.04;828643;71;26216;-78
2021/05/06 18:53:37;;;;;;;6.20;5.10;;;;;;;20.44;36.90;94190.75;828552;71;26275;-79
2021/05/06 18:54:41;;;;;;;4.65;4.25;;;;;;;20.44;36.76;94198.20;828425;71;26233;-80
2021/05/06 18:55:44;;;;;;;5.10;4.60;;;;;;;20.44;36.81;94196.08;828859;71;26392;-82
2021/05/06 18:56:49;;;;;;;6.05;4.75;;;;;;;20.43;36.90;94195.31;828999;71;26756;-81
2021/05/06 18:57:54;;;;;;;7.58;4.60;;;;;;;20.43;36.86;94199.31;828787;71;27064;-79
2021/05/06 18:58:58;;;;;;;5.53;5.03;;;;;;;20.40;36.86;94198.14;814911;71;26320;-82
2021/05/06 19:00:02;;;;;;;6.35;4.95;;;;;;;20.39;36.90;94200.58;809933;73;26476;-81
2021/05/06 19:01:06;;;;;;;6.37;5.10;;;;;;;20.36;36.97;94205.31;809995;73;26416;-80
2021/05/06 19:02:11;;;;;;;5.80;5.25;;;;;;;20.35;36.89;94201.66;810528;73;26643;-82
2021/05/06 19:03:16;;;;;;;5.37;4.80;;;;;;;20.33;36.97;94199.91;809998;73;26286;-81
2021/05/06 19:04:20;;;;;;;6.95;5.25;;;;;;;20.32;36.98;94202.39;791006;74;26310;-81
2021/05/06 19:05:24;;;;;;;4.67;4.28;;;;;;;20.30;37.09;94201.41;791258;73;26380;-78
2021/05/06 19:06:28;;;;;;;5.92;4.70;;;;;;;20.29;37.20;94199.09;807477;73;26425;-80
2021/05/06 19:07:36;;;;;;;7.62;4.67;;;;;;;20.28;37.30;94202.33;807889;71;26263;-78
2021/05/06 19:08:40;;;;;;;4.60;4.20;;;;;;;20.26;37.30;94196.58;807822;73;26264;-80
2021/05/06 19:09:45;;;;;;;5.65;4.55;;;;;;;20.26;37.41;94203.81;808477;73;26266;-81
2021/05/06 19:10:52;;;;;;;8.68;4.65;;;;;;;20.25;37.63;94209.69;808483;73;26360;-80
2021/05/06 19:11:57;;;;;;;5.08;4.58;;;;;;;20.23;37.79;94206.61;808759;73;26209;-80
2021/05/06 19:13:02;;;;;;;4.92;4.40;;;;;;;20.22;37.75;94211.74;808742;73;26438;-78
2021/05/06 19:14:08;;;;;;;5.22;4.72;;;;;;;20.20;37.68;94208.09;808385;73;26224;-81
2021/05/06 19:15:13;;;;;;;8.88;4.30;;;;;;;20.20;37.57;94207.33;808698;73;26275;-81
2021/05/06 19:16:16;;;;;;;4.95;4.55;;;;;;;20.19;37.56;94212.44;807974;73;26713;-81
2021/05/06 19:17:20;;;;;;;4.90;4.40;;;;;;;20.18;37.54;94208.25;807800;73;26307;-78
2021/05/06 19:18:24;;;;;;;5.30;4.75;;;;;;;20.16;37.55;94204.60;808502;73;26283;-81
2021/05/06 19:19:28;;;;;;;4.55;4.17;;;;;;;20.16;37.67;94203.84;808211;73;26522;-82
2021/05/06 19:20:33;;;;;;;6.75;4.60;;;;;;;20.17;37.77;94202.70;807388;73;26264;-84
2021/05/06 19:21:40;;;;;;;6.00;4.60;;;;;;;20.15;37.51;94192.42;807484;73;26274;-80
2021/05/06 19:22:46;;;;;;;5.75;4.70;;;;;;;20.15;37.42;94200.95;807235;73;26785;-83
2021/05/06 19:23:50;;;;;;;5.20;4.60;;;;;;;20.15;37.71;94204.95;804473;73;26271;-83
2021/05/06 19:24:53;;;;;;;5.58;4.42;;;;;;;20.12;38.04;94203.02;804610;73;26348;-81
2021/05/06 19:25:57;;;;;;;5.65;4.60;;;;;;;20.11;38.15;94200.89;807403;73;26291;-84
2021/05/06 19:27:01;;;;;;;5.40;4.90;;;;;;;20.09;38.32;94196.48;807854;73;26325;-83
2021/05/06 19:28:05;;;;;;;4.95;4.45;;;;;;;20.08;38.42;94193.63;807155;73;26823;-81
2021/05/06 19:29:09;;;;;;;5.12;4.62;;;;;;;20.09;38.52;94195.72;807360;73;26591;-82
2021/05/06 19:30:14;;;;;;;10.00;5.35;;;;;;;20.07;38.61;94192.64;807337;73;26761;-83
2021/05/06 19:31:20;;;;;;;5.08;4.58;;;;;;;20.01;38.67;94196.95;805914;73;26625;-82
2021/05/06 19:32:24;;;;;;;4.75;4.40;;;;;;;19.98;38.16;94197.64;807261;73;26275;-81
2021/05/06 19:33:31;;;;;;;6.45;4.55;;;;;;;19.94;38.30;94192.05;807072;73;26349;-80
2021/05/06 19:34:36;;;;;;;5.95;4.70;;;;;;;19.91;38.40;94192.74;807049;73;26400;-81
2021/05/06 19:35:41;;;;;;;5.90;5.30;;;;;;;19.91;38.52;94195.41;811567;72;26281;-79
2021/05/06 19:36:53;;;;;;;8.55;5.42;;;;;;;19.89;38.72;94195.78;806584;72;26315;-80
2021/05/06 19:37:56;;;;;;;8.43;5.30;;;;;;;19.89;38.81;94193.13;807580;71;26271;-84
2021/05/06 19:39:01;;;;;;;5.12;4.62;;;;;;;19.88;38.93;94196.13;807061;73;26419;-80
2021/05/06 19:40:05;;;;;;;6.60;5.47;;;;;;;19.87;38.94;94191.91;807518;71;26288;-80
2021/05/06 19:41:12;;;;;;;6.40;5.58;;;;;;;19.86;38.97;94189.82;803587;73;26345;-82
2021/05/06 19:42:17;;;;;;;6.40;5.80;;;;;;;19.84;39.04;94192.06;806987;73;26268;-81
2021/05/06 19:43:23;;;;;;;8.45;5.72;;;;;;;19.79;39.12;94193.70;807116;73;26344;-80
2021/05/06 19:44:38;;;;;;;8.10;7.00;;;;;;;19.77;39.12;94197.28;807100;73;26338;-80
2021/05/06 19:45:52;;;;;;;7.92;6.55;;;;;;;19.71;38.92;94190.70;806257;73;26310;-79
2021/05/06 19:47:05;;;;;;;6.17;5.60;;;;;;;19.70;38.87;94194.45;804593;73;26736;-81
2021/05/06 19:47:54;;;;;;;7.05;5.62;;;;;;;19.69;38.75;94192.89;803332;73;26276;-80
2021/05/06 19:48:58;;;;;;;5.12;4.70;;;;;;;19.68;38.66;94196.13;807335;73;26730;-79
2021/05/06 19:50:04;;;;;;;6.50;4.40;;;;;;;19.68;38.57;94193.46;806391;73;26295;-80
2021/05/06 19:51:08;;;;;;;4.72;4.17;;;;;;;19.68;38.35;94194.03;807351;73;26315;-79
2021/05/06 19:52:12;;;;;;;4.87;4.05;;;;;;;19.67;38.29;94189.81;807077;73;26377;-79
2021/05/06 19:53:17;;;;;;;4.30;3.72;;;;;;;19.68;38.27;94191.37;806989;73;26333;-79
2021/05/06 19:54:20;;;;;;;5.42;4.33;;;;;;;19.68;38.18;94196.70;818049;71;26265;-81
2021/05/06 19:55:24;;;;;;;8.93;3.85;;;;;;;19.66;38.21;94188.29;821592;72;26659;-83
2021/05/06 19:56:28;;;;;;;4.70;4.30;;;;;;;19.66;38.18;94190.95;819012;71;26281;-80
2021/05/06 19:57:32;;;;;;;4.58;4.20;;;;;;;19.65;38.26;94186.73;822324;72;26280;-82
2021/05/06 19:58:38;;;;;;;4.90;4.50;;;;;;;19.61;38.36;94182.13;822763;72;26668;-81
2021/05/06 19:59:41;;;;;;;7.62;4.60;;;;;;;19.59;38.41;94177.72;821966;72;26307;-81
2021/05/06 20:00:46;;;;;;;5.10;4.60;;;;;;;19.55;38.49;94174.23;821902;72;26307;-81
2021/05/06 20:01:50;;;;;;;5.75;4.90;;;;;;;19.53;38.47;94169.81;821807;72;26751;-81
2021/05/06 20:02:54;;;;;;;4.80;4.30;;;;;;;19.50;38.56;94169.17;821875;72;26257;-80
2021/05/06 20:03:58;;;;;;;6.37;3.85;;;;;;;19.49;38.71;94170.31;821939;72;26213;-82
2021/05/06 20:05:02;;;;;;;7.33;4.78;;;;;;;19.49;38.98;94167.66;823680;72;26326;-81
2021/05/06 20:06:11;;;;;;;5.05;4.55;;;;;;;19.48;39.15;94159.44;824823;72;26345;-80
2021/05/06 20:07:15;;;;;;;6.20;4.47;;;;;;;19.48;39.24;94163.44;824721;72;26296;-79
2021/05/06 20:08:20;;;;;;;5.58;4.47;;;;;;;19.47;41.63;94164.57;808462;73;26303;-79
2021/05/06 20:09:28;;;;;;;7.62;4.80;;;;;;;19.49;42.53;94158.34;810217;72;26753;-78
2021/05/06 20:10:40;;;;;;;7.70;4.92;;;;;;;19.52;43.66;94162.94;824464;72;24493;-81
2021/05/06 20:11:47;;;;;;;6.25;5.33;;;;;;;19.53;44.33;94156.52;824686;72;26269;-77
2021/05/06 20:12:56;;;;;;;7.40;5.15;;;;;;;19.59;45.36;94160.98;824571;72;26837;-78
2021/05/06 20:13:56;;;;;;;7.30;5.35;;;;;;;19.61;45.18;94158.17;823522;72;26273;-78
2021/05/06 20:15:00;;;;;;;11.57;5.72;;;;;;;19.63;44.19;94152.51;824767;72;26945;-78
2021/05/06 20:16:04;;;;;;;9.10;6.60;;;;;;;19.64;43.42;94150.61;824676;72;26353;-79
2021/05/06 20:18:17;;;;;;;9.38;5.05;;;;;;;19.64;42.98;94152.70;794015;73;26322;-78
2021/05/06 20:19:24;;;;;;;5.55;4.75;;;;;;;19.66;43.21;94151.02;812780;72;26276;-77
2021/05/06 20:20:31;;;;;;;5.00;4.50;;;;;;;19.69;43.20;94152.96;824618;72;26280;-78
2021/05/06 20:22:58;;;;;;;6.47;4.40;;;;;;;19.76;42.85;94153.13;824659;72;26710;-78
2021/05/06 20:24:03;;;;;;;5.58;5.08;;;;;;;19.79;43.04;94161.19;824834;72;26322;-81
2021/05/06 20:25:09;;;;;;;6.55;4.80;;;;;;;19.84;42.86;94160.11;824785;72;26256;-78
2021/05/06 20:26:13;;;;;;;5.50;4.97;;;;;;;19.88;42.86;94165.50;823575;72;26321;-79
2021/05/06 20:27:23;;;;;;;6.67;5.30;;;;;;;19.92;43.11;94170.33;824597;72;26261;-79
2021/05/06 20:28:27;;;;;;;7.05;5.10;;;;;;;19.95;43.00;94168.27;824811;72;26292;-80
2021/05/06 20:29:38;;;;;;;7.95;4.95;;;;;;;19.98;42.86;94174.23;824593;72;26322;-79
2021/05/06 20:30:38;;;;;;;8.15;4.87;;;;;;;19.99;42.72;94164.56;824110;72;26268;-79
2021/05/06 20:31:42;;;;;;;7.08;6.37;;;;;;;20.03;42.75;94171.27;825578;72;26289;-79
2021/05/06 20:32:47;;;;;;;6.70;6.05;;;;;;;20.06;42.70;94169.23;822719;72;26214;-81
2021/05/06 20:33:51;;;;;;;6.10;5.45;;;;;;;20.09;42.63;94172.50;809696;72;26301;-80
2021/05/06 20:35:02;;;;;;;7.53;5.55;;;;;;;20.12;42.50;94169.14;819690;72;26262;-80
2021/05/06 20:36:05;;;;;;;8.25;5.70;;;;;;;20.16;42.38;94174.53;811751;72;26293;-78
2021/05/06 20:37:09;;;;;;;6.85;5.60;;;;;;;20.20;42.23;94176.69;809212;72;26269;-81
2021/05/06 20:38:17;;;;;;;6.25;5.62;;;;;;;20.22;42.01;94182.44;798906;73;26316;-79
2021/05/06 20:39:22;;;;;;;6.17;5.53;;;;;;;20.24;42.06;94182.84;803752;72;26269;-77
2021/05/06 20:40:26;;;;;;;5.90;5.40;;;;;;;20.28;42.12;94188.23;812200;72;26226;-77
2021/05/06 20:41:30;;;;;;;6.30;5.70;;;;;;;20.31;41.98;94186.94;809838;73;26274;-77
2021/05/06 20:42:55;;;;;;;7.00;5.28;;;;;;;20.34;41.84;94191.57;809928;73;26206;-79
2021/05/06 20:43:57;;;;;;;7.45;5.70;;;;;;;20.40;41.90;94192.05;807418;72;26269;-80
2021/05/06 20:44:55;;;;;;;9.15;5.50;;;;;;;20.43;41.61;94189.98;813506;72;26293;-80
2021/05/06 20:45:55;;;;;;;6.20;5.08;;;;;;;20.45;41.66;94194.39;817824;72;26761;-78
2021/05/06 20:47:08;;;;;;;6.55;5.20;;;;;;;20.48;41.58;94193.69;814165;72;26303;-79
2021/05/06 20:48:17;;;;;;;5.03;4.47;;;;;;;20.49;41.51;94199.21;810097;73;26283;-79
2021/05/06 20:49:21;;;;;;;5.08;4.58;;;;;;;20.50;41.23;94205.30;809898;73;26281;-79
2021/05/06 20:50:24;;;;;;;5.83;5.22;;;;;;;20.51;41.32;94206.86;810106;73;26275;-78
2021/05/06 20:51:28;;;;;;;6.35;5.10;;;;;;;20.51;41.24;94207.63;810046;73;26308;-79
2021/05/06 20:52:32;;;;;;;7.35;5.10;;;;;;;20.54;41.13;94208.80;810020;73;26276;-78
2021/05/06 20:53:35;;;;;;;5.78;5.22;;;;;;;20.57;41.17;94212.09;809979;73;26257;-79
2021/05/06 20:54:40;;;;;;;7.00;4.95;;;;;;;20.59;41.05;94209.87;809945;73;26272;-79
2021/05/06 20:55:50;;;;;;;8.23;5.25;;;;;;;20.61;40.99;94211.61;814182;72;26762;-79
2021/05/06 20:56:51;;;;;;;5.75;5.25;;;;;;;20.63;41.16;94225.92;824169;72;26226;-78
2021/05/06 20:57:55;;;;;;;5.58;5.08;;;;;;;20.65;41.03;94234.33;824510;72;26342;-80
2021/05/06 20:59:00;;;;;;;5.78;5.10;;;;;;;20.66;41.11;94224.66;824717;72;26205;-80
2021/05/06 21:00:04;;;;;;;7.10;5.97;;;;;;;20.68;40.93;94222.39;825020;72;26369;-79
2021/05/06 21:01:39;;;;;;;5.60;5.10;;;;;;;20.74;40.64;94216.95;830200;71;29752;-77
2021/05/06 21:16:14;;;;;;;5.92;5.25;;;;;;;19.88;41.89;94217.44;827763;71;32640;-78
2021/05/06 21:31:08;;;;;;;5.95;5.00;;;;;;;19.38;42.70;94215.36;828304;71;29794;-77
2021/05/06 21:46:08;;;;;;;5.30;4.80;;;;;;;19.00;43.76;94224.84;828347;71;30349;-78
2021/05/06 22:01:15;;;;;;;6.35;5.70;;;;;;;18.90;44.56;94229.36;827533;71;33201;-76
2021/05/06 22:16:14;;;;;;;4.85;4.45;;;;;;;18.96;44.69;94225.89;827778;71;32687;-77
2021/05/06 22:31:14;;;;;;;5.03;4.62;;;;;;;18.79;45.10;94212.40;827611;71;33474;-77
2021/05/06 22:46:08;;;;;;;4.87;4.47;;;;;;;18.64;45.42;94199.33;829851;71;29667;-77
2021/05/06 23:01:09;;;;;;;5.72;4.33;;;;;;;18.58;45.93;94190.84;828977;71;30329;-78
2021/05/06 23:16:09;;;;;;;5.62;4.65;;;;;;;18.57;46.27;94201.81;828248;71;30270;-76
2021/05/06 23:31:14;;;;;;;6.40;4.90;;;;;;;18.53;46.75;94191.13;827636;71;33114;-76
2021/05/06 23:46:16;;;;;;;5.00;4.50;;;;;;;18.33;47.41;94197.47;827582;71;32665;-75
